Terminal Aerodrome Forecast
Issued by NWS

Home | Current Version | Previous Version | Text Only | Print | Product List | Glossary On
Versions: 1 2 3 4 5 6 7 8 9 10 11 12 13 14 15 16 17 18 19
000
FTUS45 KABQ 220500
TAFGUP
TAF
KGUP 220524Z 2206/2306 21006KT P6SM FEW060 SCT200
     FM221100 25008KT P6SM FEW040 SCT150
     FM221800 28015G25KT P6SM SCT040 SCT100
     FM230000 27009KT P6SM SCT040=

USA.gov is the U.S. government's official web portal to all federal, state and local government web resources and services.